CheckWX is a tool to help pilots better visualize weather data.  It is not intended as a substitute for an official pre-flight weather briefing.

14:53:23 UTC

KHRO TAF
Boone County Airport
Harrison, Arkansas, USA
KHRO 191133Z 1912/2012 28008KT P6SM SCT250 FM192300 16004KT P6SM SKC

Nov-19@
12:00 UTC

Nov-19 @ 12:00 UTC

Nov-19@
23:00 UTC

Nov-19 @ 23:00 UTC

KHRO 191133Z 1912/2012 28008KT P6SM SCT250
Wind
  • 280° at 8 KTS
Cloud Levels
  • Scattered at 25,000' AGL

Nov-19@
23:00 UTC

Nov-19 @ 23:00 UTC

Nov-20@
12:00 UTC

Nov-20 @ 12:00 UTC

FM192300 16004KT P6SM SKC

From

From Standard forecast or significant change

Wind
  • 160° at 4 KTS
Cloud Levels
  • Clear skies